createdAt,value
2022-10-10T00:01:38.341Z,101142.25
2022-10-10T00:04:09.057Z,101151.91
2022-10-10T00:06:35.991Z,101137.88
2022-10-10T00:09:10.666Z,101143.72
2022-10-10T00:11:38.663Z,101142.25
2022-10-10T00:14:06.007Z,101131.41
2022-10-10T00:16:34.013Z,101130.31
2022-10-10T00:19:03.780Z,101130.31
2022-10-10T00:21:30.620Z,101124.47
2022-10-10T00:23:57.399Z,101111.63
2022-10-10T00:26:24.220Z,101120.06
2022-10-10T00:28:51.082Z,101112.53
2022-10-10T00:31:18.897Z,101103.72
2022-10-10T00:33:46.194Z,101106.16
2022-10-10T00:36:14.272Z,101104.69
2022-10-10T00:38:41.260Z,101098.47
2022-10-10T00:41:08.060Z,101096.53
2022-10-10T00:43:38.801Z,101084.81
2022-10-10T00:46:05.822Z,101082.75
2022-10-10T00:48:45.955Z,101085.16
2022-10-10T00:51:19.835Z,101078.66
2022-10-10T00:53:53.720Z,101068.66
2022-10-10T00:56:29.571Z,101069.00
2022-10-10T00:59:04.717Z,101064.38
2022-10-10T01:01:31.660Z,101065.19
2022-10-10T01:04:02.323Z,101068.13
2022-10-10T01:06:30.216Z,101060.81
2022-10-10T01:08:57.741Z,101060.06
2022-10-10T01:11:57.475Z,101060.94
2022-10-10T01:14:40.370Z,101052.78
2022-10-10T01:17:53.930Z,101047.66
2022-10-10T01:21:04.587Z,101048.69
2022-10-10T01:24:19.565Z,101042.72
2022-10-10T01:27:25.449Z,101037.91
2022-10-10T01:30:10.670Z,101035.25
2022-10-10T01:33:04.936Z,101037.03
2022-10-10T01:35:59.757Z,101033.38
2022-10-10T01:39:09.463Z,101017.13
2022-10-10T01:42:01.266Z,101015.44
2022-10-10T01:44:27.988Z,101022.41
2022-10-10T01:46:54.882Z,101016.50
2022-10-10T01:49:32.245Z,101016.75
2022-10-10T01:52:43.980Z,101015.19
2022-10-10T01:55:35.205Z,101017.13
2022-10-10T01:58:27.810Z,101009.44
2022-10-10T02:02:02.921Z,101002.94
2022-10-10T02:04:41.043Z,101001.97
2022-10-10T02:07:40.205Z,100997.56
2022-10-10T02:10:11.389Z,100992.66
2022-10-10T02:12:40.671Z,100999.88
2022-10-10T02:15:19.658Z,100981.81
2022-10-10T02:17:50.650Z,100979.97
2022-10-10T02:20:26.172Z,100982.53
2022-10-10T02:22:56.758Z,100981.91
2022-10-10T02:25:37.658Z,100975.94
2022-10-10T02:28:39.600Z,100984.50
2022-10-10T02:31:21.558Z,100969.03
2022-10-10T02:34:05.313Z,100959.50
2022-10-10T02:36:33.109Z,100963.06
2022-10-10T02:39:01.305Z,100964.88
2022-10-10T02:41:34.083Z,100951.84
2022-10-10T02:44:01.153Z,100950.84
2022-10-10T02:46:28.482Z,100949.41
2022-10-10T02:48:55.241Z,100941.22
2022-10-10T02:51:27.527Z,100928.91
2022-10-10T02:53:57.269Z,100923.81
2022-10-10T02:56:24.003Z,100921.38
2022-10-10T02:58:50.744Z,100921.50
2022-10-10T03:01:19.010Z,100917.22
2022-10-10T03:03:46.235Z,100913.13
2022-10-10T03:06:16.706Z,100914.69
2022-10-10T03:08:43.616Z,100917.38
2022-10-10T03:11:13.426Z,100905.06
2022-10-10T03:13:40.242Z,100906.03
2022-10-10T03:16:07.132Z,100899.94
2022-10-10T03:18:34.005Z,100889.72
2022-10-10T03:21:00.788Z,100895.72
2022-10-10T03:23:27.554Z,100894.75
2022-10-10T03:25:57.652Z,100894.47
2022-10-10T03:28:27.372Z,100874.25
2022-10-10T03:30:56.597Z,100879.03
2022-10-10T03:33:23.470Z,100876.81
2022-10-10T03:35:53.404Z,100883.75
2022-10-10T03:38:23.418Z,100877.66
2022-10-10T03:40:50.199Z,100869.88
2022-10-10T03:43:21.275Z,100878.66
2022-10-10T03:45:50.977Z,100872.69
2022-10-10T03:48:17.894Z,100876.19
2022-10-10T03:50:47.051Z,100861.94
2022-10-10T03:53:13.851Z,100867.03
2022-10-10T03:55:42.628Z,100857.56
2022-10-10T03:58:11.474Z,100856.97
2022-10-10T04:00:39.179Z,100860.47
2022-10-10T04:03:08.176Z,100856.13
2022-10-10T04:05:40.419Z,100848.28
2022-10-10T04:08:07.465Z,100849.88
2022-10-10T04:10:34.430Z,100850.00
2022-10-10T04:13:03.523Z,100857.06
2022-10-10T04:15:33.503Z,100853.66
2022-10-10T04:18:00.982Z,100852.81
2022-10-10T04:20:27.842Z,100835.16
2022-10-10T04:22:57.006Z,100834.41
2022-10-10T04:25:24.373Z,100832.59
2022-10-10T04:27:58.511Z,100828.09
2022-10-10T04:30:46.753Z,100820.88
2022-10-10T04:33:38.060Z,100828.94
2022-10-10T04:36:05.833Z,100826.16
2022-10-10T04:38:39.139Z,100831.16
2022-10-10T04:41:06.225Z,100820.59
2022-10-10T04:43:33.526Z,100820.44
2022-10-10T04:46:02.777Z,100809.72
2022-10-10T04:48:29.951Z,100814.38
2022-10-10T04:51:13.770Z,100809.25
2022-10-10T04:53:41.329Z,100803.03
2022-10-10T04:56:14.246Z,100803.16
2022-10-10T04:58:41.616Z,100810.25
2022-10-10T05:01:08.777Z,100802.69
2022-10-10T05:03:35.946Z,100811.13
2022-10-10T05:06:03.505Z,100804.75
2022-10-10T05:08:30.640Z,100800.66
2022-10-10T05:10:57.562Z,100806.88
2022-10-10T05:13:31.832Z,100792.13
2022-10-10T05:16:00.551Z,100797.84
2022-10-10T05:18:28.662Z,100791.91
2022-10-10T05:20:58.723Z,100791.66
2022-10-10T05:23:51.427Z,100794.34
2022-10-10T05:26:20.199Z,100787.50
2022-10-10T05:28:48.196Z,100793.03
2022-10-10T05:31:15.487Z,100783.38
2022-10-10T05:33:42.662Z,100778.88
2022-10-10T05:36:14.737Z,100779.72
2022-10-10T05:38:42.957Z,100790.56
2022-10-10T05:41:13.714Z,100783.63
2022-10-10T05:43:40.945Z,100773.66
2022-10-10T05:46:07.880Z,100769.97
2022-10-10T05:48:43.451Z,100765.72
2022-10-10T05:51:15.817Z,100761.22
2022-10-10T05:53:42.667Z,100759.50
2022-10-10T05:56:10.121Z,100772.41
2022-10-10T05:58:37.437Z,100767.06
2022-10-10T06:01:08.352Z,100762.06
2022-10-10T06:03:38.930Z,100762.81
2022-10-10T06:06:11.677Z,100754.88
2022-10-10T06:08:46.421Z,100754.63
2022-10-10T06:11:18.223Z,100752.53
2022-10-10T06:13:49.676Z,100751.06
2022-10-10T06:16:17.437Z,100745.41
2022-10-10T06:18:45.602Z,100746.38
2022-10-10T06:21:13.730Z,100750.25
2022-10-10T06:23:42.727Z,100752.75
2022-10-10T06:26:10.607Z,100749.88
2022-10-10T06:28:38.141Z,100748.94
2022-10-10T06:31:09.293Z,100748.88
2022-10-10T06:33:37.661Z,100742.47
2022-10-10T06:36:08.936Z,100744.09
2022-10-10T06:38:42.788Z,100735.09
2022-10-10T06:41:11.051Z,100743.78
2022-10-10T06:43:38.592Z,100746.09
2022-10-10T06:46:07.973Z,100738.50
2022-10-10T06:48:36.584Z,100730.94
2022-10-10T06:51:15.693Z,100738.47
2022-10-10T06:53:53.420Z,100739.88
2022-10-10T06:56:27.438Z,100738.34
2022-10-10T06:58:55.754Z,100733.81
2022-10-10T07:01:26.660Z,100732.97
2022-10-10T07:03:56.203Z,100716.78
2022-10-10T07:06:23.543Z,100722.31
2022-10-10T07:08:50.278Z,100724.22
2022-10-10T07:11:17.339Z,100734.56
2022-10-10T07:13:44.073Z,100727.91
2022-10-10T07:16:11.457Z,100725.06
2022-10-10T07:18:38.947Z,100713.03
2022-10-10T07:21:06.603Z,100725.91
2022-10-10T07:23:33.818Z,100725.44
2022-10-10T07:26:15.139Z,100726.72
2022-10-10T07:28:41.959Z,100728.56
2022-10-10T07:31:11.552Z,100743.16
2022-10-10T07:33:49.866Z,100742.19
2022-10-10T07:36:18.389Z,100736.75
2022-10-10T07:38:54.881Z,100730.28
2022-10-10T07:41:22.531Z,100720.44
2022-10-10T07:43:56.084Z,100723.81
2022-10-10T07:46:24.431Z,100724.16
2022-10-10T07:48:52.581Z,100724.38
2022-10-10T07:51:19.437Z,100724.38
2022-10-10T07:53:46.457Z,100724.16
2022-10-10T07:56:13.438Z,100708.59
2022-10-10T07:58:40.604Z,100718.66
2022-10-10T08:01:11.904Z,100726.97
2022-10-10T08:03:40.311Z,100722.44
2022-10-10T08:06:14.553Z,100719.53
2022-10-10T08:08:51.709Z,100723.44
2022-10-10T08:11:22.294Z,100716.66
2022-10-10T08:13:52.193Z,100716.41
2022-10-10T08:16:19.796Z,100732.31
2022-10-10T08:18:46.632Z,100716.75
2022-10-10T08:21:16.516Z,100718.91
2022-10-10T08:23:46.541Z,100717.94
2022-10-10T08:26:17.343Z,100710.56
2022-10-10T08:28:45.689Z,100707.56
2022-10-10T08:31:21.209Z,100703.78
2022-10-10T08:33:51.771Z,100694.13
2022-10-10T08:36:23.440Z,100692.06
2022-10-10T08:38:53.447Z,100692.16
2022-10-10T08:41:58.858Z,100688.69
2022-10-10T08:44:40.037Z,100690.09
2022-10-10T08:47:09.675Z,100689.94
2022-10-10T08:50:12.566Z,100681.31
2022-10-10T08:52:59.071Z,100686.63
2022-10-10T08:55:36.020Z,100683.63
2022-10-10T08:58:27.733Z,100684.13
2022-10-10T09:01:12.991Z,100676.66
2022-10-10T09:03:50.228Z,100668.06
2022-10-10T09:07:09.597Z,100680.06
2022-10-10T09:10:26.738Z,100671.72
2022-10-10T09:13:26.108Z,100664.78
2022-10-10T09:16:04.624Z,100667.41
2022-10-10T09:18:49.847Z,100664.75
2022-10-10T09:21:39.108Z,100661.72
2022-10-10T09:24:26.749Z,100657.66
2022-10-10T09:27:04.804Z,100650.78
2022-10-10T09:30:16.802Z,100650.91
2022-10-10T09:32:57.486Z,100659.22
2022-10-10T09:35:39.316Z,100653.88
2022-10-10T09:38:39.157Z,100663.81
2022-10-10T09:41:14.695Z,100644.22
2022-10-10T09:43:43.231Z,100644.41
2022-10-10T09:46:11.085Z,100640.31
2022-10-10T09:48:43.762Z,100638.72
2022-10-10T09:51:19.405Z,100629.63
2022-10-10T09:53:50.227Z,100636.47
2022-10-10T09:56:37.422Z,100631.97
2022-10-10T09:59:04.587Z,100628.81
2022-10-10T10:01:33.148Z,100631.44
2022-10-10T10:04:29.333Z,100631.69
2022-10-10T10:07:38.988Z,100626.06
2022-10-10T10:10:25.042Z,100622.53
2022-10-10T10:12:57.116Z,100621.88
2022-10-10T10:15:32.101Z,100632.00
2022-10-10T10:18:21.695Z,100628.00
2022-10-10T10:20:55.407Z,100620.22
2022-10-10T10:23:34.795Z,100624.50
2022-10-10T10:26:18.641Z,100623.00
2022-10-10T10:28:48.885Z,100625.75
2022-10-10T10:31:47.841Z,100616.50
2022-10-10T10:34:46.934Z,100615.25
2022-10-10T10:38:04.021Z,100612.50
2022-10-10T10:40:50.655Z,100604.44
2022-10-10T10:43:49.197Z,100605.50
2022-10-10T10:47:05.868Z,100605.69
2022-10-10T10:50:23.464Z,100607.72
2022-10-10T10:53:22.385Z,100604.06
2022-10-10T10:57:11.219Z,100610.63
2022-10-10T11:00:25.645Z,100602.47
2022-10-10T11:05:18.452Z,100607.78
2022-10-10T11:07:19.432Z,100602.28
2022-10-10T11:10:12.644Z,100598.31
2022-10-10T11:13:07.768Z,100592.19
2022-10-10T11:16:05.351Z,100589.03
2022-10-10T11:19:12.128Z,100582.91
2022-10-10T11:21:53.532Z,100592.00
2022-10-10T11:24:42.278Z,100588.41
2022-10-10T11:27:23.508Z,100589.66
2022-10-10T11:30:12.993Z,100574.72
2022-10-10T11:33:10.618Z,100583.56
2022-10-10T11:36:13.055Z,100580.66
2022-10-10T11:38:52.787Z,100581.00
2022-10-10T11:41:35.377Z,100573.88
2022-10-10T11:44:53.614Z,100577.22
2022-10-10T11:47:39.983Z,100570.75
2022-10-10T11:50:26.163Z,100573.09
2022-10-10T11:53:18.413Z,100569.44
2022-10-10T11:56:32.869Z,100563.63
2022-10-10T11:59:33.348Z,100565.09
2022-10-10T12:02:14.854Z,100565.53
2022-10-10T12:04:43.904Z,100557.59
2022-10-10T12:07:48.604Z,100556.09
2022-10-10T12:10:45.767Z,100553.13
2022-10-10T12:13:38.852Z,100553.13
2022-10-10T12:16:25.889Z,100559.22
2022-10-10T12:19:19.030Z,100542.63
2022-10-10T12:21:54.476Z,100546.38
2022-10-10T12:24:23.947Z,100545.16
2022-10-10T12:26:56.317Z,100544.31
2022-10-10T12:30:06.129Z,100542.66
2022-10-10T12:32:50.364Z,100523.41
2022-10-10T12:35:38.477Z,100524.47
2022-10-10T12:38:05.697Z,100523.47
2022-10-10T12:41:14.019Z,100517.09
2022-10-10T12:43:50.623Z,100511.59
2022-10-10T12:46:26.481Z,100504.38
2022-10-10T12:49:26.551Z,100508.72
2022-10-10T12:52:42.394Z,100505.69
2022-10-10T12:55:25.136Z,100507.41
2022-10-10T12:57:58.646Z,100514.13
2022-10-10T13:00:39.570Z,100518.50
2022-10-10T13:03:36.236Z,100514.13
2022-10-10T13:06:35.015Z,100514.91
2022-10-10T13:09:07.612Z,100510.75
2022-10-10T13:12:00.849Z,100512.88
2022-10-10T13:14:45.412Z,100513.81
2022-10-10T13:17:41.280Z,100514.16
2022-10-10T13:20:27.692Z,100521.84
2022-10-10T13:22:57.060Z,100510.34
2022-10-10T13:25:24.403Z,100519.56
2022-10-10T13:27:51.830Z,100514.88
2022-10-10T13:30:25.791Z,100513.22
2022-10-10T13:32:54.970Z,100513.41
2022-10-10T13:35:28.182Z,100508.91
2022-10-10T13:38:01.495Z,100501.47
2022-10-10T13:40:28.786Z,100508.91
2022-10-10T13:42:56.401Z,100508.44
2022-10-10T13:45:29.503Z,100508.03
2022-10-10T13:48:03.204Z,100505.72
2022-10-10T13:50:44.858Z,100503.38
2022-10-10T13:53:26.825Z,100510.63
2022-10-10T13:55:59.632Z,100507.75
2022-10-10T13:58:52.545Z,100518.09
2022-10-10T14:01:45.050Z,100515.03
2022-10-10T14:04:40.292Z,100509.28
2022-10-10T14:07:28.117Z,100504.69
2022-10-10T14:10:26.792Z,100503.13
2022-10-10T14:13:00.314Z,100504.97
2022-10-10T14:15:44.711Z,100516.31
2022-10-10T14:18:26.078Z,100518.09
2022-10-10T14:20:53.513Z,100524.41
2022-10-10T14:23:20.396Z,100514.78
2022-10-10T14:25:50.451Z,100510.03
2022-10-10T14:28:24.953Z,100514.31
2022-10-10T14:30:52.550Z,100509.53
2022-10-10T14:33:20.857Z,100515.28
2022-10-10T14:35:52.054Z,100511.34
2022-10-10T14:38:19.138Z,100517.13
2022-10-10T14:40:50.162Z,100519.09
2022-10-10T14:43:20.604Z,100513.66
2022-10-10T14:45:52.573Z,100508.97
2022-10-10T14:48:20.710Z,100513.09
2022-10-10T14:50:49.529Z,100516.56
2022-10-10T14:53:16.873Z,100512.19
2022-10-10T14:55:47.145Z,100516.22
2022-10-10T14:58:22.346Z,100517.16
2022-10-10T15:00:54.411Z,100515.19
2022-10-10T15:03:22.109Z,100515.47
2022-10-10T15:05:50.713Z,100509.06
2022-10-10T15:08:22.479Z,100516.94
2022-10-10T15:10:49.351Z,100511.03
2022-10-10T15:13:17.023Z,100516.84
2022-10-10T15:15:43.863Z,100522.44
2022-10-10T15:18:33.256Z,100517.38
2022-10-10T15:20:57.851Z,100518.78
2022-10-10T15:23:24.713Z,100521.00
2022-10-10T15:25:51.517Z,100516.63
2022-10-10T15:28:18.447Z,100512.75
2022-10-10T15:30:46.379Z,100516.84
2022-10-10T15:33:13.558Z,100517.97
2022-10-10T15:36:07.476Z,100520.38
2022-10-10T15:38:29.566Z,100521.78
2022-10-10T15:41:09.793Z,100526.66
2022-10-10T15:43:57.177Z,100517.50
2022-10-10T15:46:28.489Z,100521.03
2022-10-10T15:49:02.522Z,100530.88
2022-10-10T15:51:29.676Z,100537.38
2022-10-10T15:53:58.883Z,100541.13
2022-10-10T15:56:26.532Z,100546.28
2022-10-10T15:59:03.293Z,100554.47
2022-10-10T16:01:31.123Z,100550.41
2022-10-10T16:03:58.852Z,100545.53
2022-10-10T16:06:26.190Z,100556.88
2022-10-10T16:09:10.020Z,100550.41
2022-10-10T16:11:40.648Z,100550.53
2022-10-10T16:14:07.731Z,100540.94
2022-10-10T16:16:34.577Z,100542.81
2022-10-10T16:19:01.387Z,100542.31
2022-10-10T16:21:29.837Z,100550.28
2022-10-10T16:23:58.145Z,100546.53
2022-10-10T16:26:33.439Z,100563.47
2022-10-10T16:29:02.527Z,100564.97
2022-10-10T16:31:30.232Z,100571.56
2022-10-10T16:33:59.356Z,100580.06
2022-10-10T16:36:31.854Z,100578.66
2022-10-10T16:38:59.934Z,100592.63
2022-10-10T16:41:48.986Z,100585.59
2022-10-10T16:44:17.620Z,100590.94
2022-10-10T16:46:44.973Z,100590.16
2022-10-10T16:49:16.659Z,100597.97
2022-10-10T16:51:44.021Z,100593.56
2022-10-10T16:54:13.080Z,100604.59
2022-10-10T16:59:11.245Z,100603.88
2022-10-10T17:01:38.205Z,100606.06
2022-10-10T17:04:07.688Z,100604.34
2022-10-10T17:09:19.015Z,100612.91
2022-10-10T17:11:50.476Z,100607.31
2022-10-10T17:14:18.087Z,100610.22
2022-10-10T17:19:34.419Z,100614.06
2022-10-10T17:22:01.121Z,100610.38
2022-10-10T17:24:28.081Z,100609.53
2022-10-10T17:26:54.695Z,100614.25
2022-10-10T17:29:23.531Z,100606.28
2022-10-10T17:31:50.180Z,100614.56
2022-10-10T17:34:16.980Z,100617.25
2022-10-10T17:36:43.729Z,100626.38
2022-10-10T17:39:10.362Z,100632.28
2022-10-10T17:41:37.030Z,100642.28
2022-10-10T17:44:05.699Z,100645.81
2022-10-10T17:46:36.297Z,100653.09
2022-10-10T17:49:08.137Z,100666.97
2022-10-10T17:51:39.304Z,100679.13
2022-10-10T17:54:08.028Z,100697.66
2022-10-10T17:56:36.431Z,100706.22
2022-10-10T17:59:08.369Z,100717.31
2022-10-10T18:01:39.087Z,100728.69
2022-10-10T18:04:07.114Z,100733.50
2022-10-10T18:06:34.173Z,100747.66
2022-10-10T18:09:07.559Z,100761.47
2022-10-10T18:11:34.439Z,100746.75
2022-10-10T18:14:04.449Z,100745.22
2022-10-10T18:16:34.584Z,100755.06
2022-10-10T18:19:04.981Z,100762.06
2022-10-10T18:34:59.807Z,100780.44
2022-10-10T18:37:26.637Z,100786.53
2022-10-10T18:39:53.474Z,100793.38
2022-10-10T19:17:32.067Z,100854.53
2022-10-10T19:19:58.875Z,100860.03
2022-10-10T19:22:25.579Z,100852.56
2022-10-10T19:24:54.398Z,100859.34
2022-10-10T19:32:44.554Z,100862.03
2022-10-10T19:43:18.564Z,100886.97
2022-10-10T19:45:55.576Z,100882.56
2022-10-10T19:48:24.806Z,100895.06
2022-10-10T19:50:53.829Z,100900.13
2022-10-10T19:53:20.740Z,100892.19
2022-10-10T19:56:05.646Z,100908.88
2022-10-10T19:58:33.468Z,100912.56
2022-10-10T20:01:00.559Z,100911.84
2022-10-10T20:03:30.896Z,100914.97
2022-10-10T20:06:01.098Z,100932.41
2022-10-10T20:08:28.667Z,100941.47
2022-10-10T20:10:55.749Z,100937.50
2022-10-10T20:13:23.235Z,100949.00
2022-10-10T20:15:51.087Z,100948.00
2022-10-10T20:18:23.088Z,100954.63
2022-10-10T20:20:52.553Z,100954.06
2022-10-10T20:23:24.285Z,100955.91
2022-10-10T20:25:52.520Z,100969.50
2022-10-10T20:28:20.973Z,100968.06
2022-10-10T20:30:53.196Z,100966.38
2022-10-10T20:33:21.632Z,100971.75
2022-10-10T20:35:53.667Z,100978.38
2022-10-10T20:38:20.801Z,100978.50
2022-10-10T20:40:47.466Z,100979.91
2022-10-10T20:43:16.350Z,100975.75
2022-10-10T20:45:43.321Z,100986.63
2022-10-10T20:48:10.349Z,100995.84
2022-10-10T20:50:38.798Z,100995.00
2022-10-10T20:53:08.532Z,101002.47
2022-10-10T20:55:35.206Z,100995.78
2022-10-10T20:58:01.839Z,101002.53
2022-10-10T21:00:28.447Z,101008.19
2022-10-10T21:02:56.559Z,101012.25
2022-10-10T21:05:25.161Z,101010.09
2022-10-10T21:07:52.053Z,101011.47
2022-10-10T21:10:18.860Z,101019.94
2022-10-10T21:12:48.229Z,101028.13
2022-10-10T21:15:15.040Z,101035.09
2022-10-10T21:17:48.374Z,101039.75
2022-10-10T21:20:15.615Z,101034.75
2022-10-10T21:22:42.367Z,101038.69
2022-10-10T21:25:09.352Z,101039.06
2022-10-10T21:27:35.979Z,101049.81
2022-10-10T21:30:02.796Z,101046.25
2022-10-10T22:02:02.296Z,101080.31
2022-10-10T22:04:29.302Z,101081.41
2022-10-10T22:06:56.093Z,101083.50
2022-10-10T22:14:45.348Z,101098.88
2022-10-10T22:36:18.724Z,101115.53
2022-10-10T22:38:49.191Z,101118.09
2022-10-10T22:52:00.937Z,101140.03
2022-10-10T23:13:15.115Z,101161.69
2022-10-10T23:15:41.735Z,101156.31
2022-10-10T23:18:08.377Z,101165.59
2022-10-10T23:20:36.143Z,101163.38
2022-10-10T23:23:03.255Z,101170.09
2022-10-10T23:25:30.287Z,101182.03
2022-10-10T23:27:57.079Z,101170.31
2022-10-10T23:30:24.610Z,101182.41
2022-10-10T23:32:51.300Z,101185.09
2022-10-10T23:35:18.480Z,101182.50
2022-10-10T23:37:45.115Z,101186.19
2022-10-10T23:40:12.089Z,101188.97
2022-10-10T23:42:38.812Z,101186.53
2022-10-10T23:45:06.326Z,101198.22
2022-10-10T23:47:33.252Z,101195.81
2022-10-10T23:50:00.422Z,101197.63
2022-10-10T23:52:27.134Z,101197.13
2022-10-10T23:54:53.756Z,101193.00
2022-10-10T23:57:20.484Z,101194.94
2022-10-10T23:59:47.122Z,101208.56
